createdAt,value
2017-11-19T07:41:27.037Z,98442.29
2017-11-19T07:44:00.943Z,98440.59
2017-11-19T07:46:38.751Z,98432.39
2017-11-19T07:49:09.348Z,98430.92
2017-11-19T07:51:40.299Z,98436.86
2017-11-19T07:54:12.038Z,98438.63
2017-11-19T07:56:43.277Z,98438.65
2017-11-19T07:59:14.320Z,98440.33
2017-11-19T08:04:26.682Z,98451.23
2017-11-19T08:06:57.584Z,98447.34
2017-11-19T08:09:28.469Z,98442.27
2017-11-19T08:14:44.358Z,98445.64
2017-11-19T08:17:16.077Z,98441.19
2017-11-19T08:19:48.606Z,98440.37
2017-11-19T08:22:19.966Z,98427.53
2017-11-19T08:24:53.813Z,98430.58
2017-11-19T08:27:26.454Z,98433.05
2017-11-19T08:43:30.849Z,98476.35
2017-11-19T08:50:11.702Z,98510.42
2017-11-19T08:52:40.129Z,98501.92
2017-11-19T08:57:57.257Z,98480.19
2017-11-19T09:00:25.678Z,98473.62
2017-11-19T09:02:54.059Z,98472.38
2017-11-19T09:05:23.064Z,98483.00
2017-11-19T09:07:51.465Z,98481.34
2017-11-19T09:10:21.352Z,98483.42
2017-11-19T09:12:49.753Z,98494.61
2017-11-19T09:15:20.630Z,98487.70
2017-11-19T09:17:49.512Z,98501.73
2017-11-19T09:20:19.237Z,98505.16
2017-11-19T09:22:47.676Z,98495.70
2017-11-19T09:25:16.180Z,98500.70
2017-11-19T09:27:44.599Z,98495.25
2017-11-19T09:30:13.067Z,98508.20
2017-11-19T09:39:59.105Z,98497.75
2017-11-19T09:42:27.498Z,98501.53
2017-11-19T09:44:55.929Z,98506.27
2017-11-19T09:47:26.516Z,98501.45
2017-11-19T09:49:58.189Z,98495.06
2017-11-19T09:52:27.834Z,98503.71
2017-11-19T09:55:08.235Z,98505.50
2017-11-19T09:57:36.615Z,98505.27
2017-11-19T10:00:05.047Z,98496.30
2017-11-19T10:02:33.428Z,98516.18
2017-11-19T10:05:01.862Z,98506.43
2017-11-19T10:07:30.277Z,98500.73
2017-11-19T10:10:00.270Z,98499.56
2017-11-19T10:12:28.674Z,98510.91
2017-11-19T10:14:54.872Z,98509.09
2017-11-19T10:17:21.078Z,98507.16
2017-11-19T10:19:47.217Z,98513.52
2017-11-19T10:22:14.348Z,98513.10
2017-11-19T10:24:44.637Z,98513.99
2017-11-19T10:27:13.546Z,98507.20
2017-11-19T10:29:42.135Z,98511.47
2017-11-19T10:32:08.385Z,98496.45
2017-11-19T10:34:35.938Z,98499.41
2017-11-19T10:37:03.494Z,98500.17
2017-11-19T10:39:31.979Z,98497.89
2017-11-19T10:41:59.521Z,98496.20
2017-11-19T10:44:27.108Z,98485.11
2017-11-19T10:46:54.604Z,98488.94
2017-11-19T10:49:22.217Z,98482.41
2017-11-19T10:51:50.311Z,98494.95
2017-11-19T10:54:18.401Z,98490.80
2017-11-19T10:56:46.299Z,98494.87
2017-11-19T10:59:13.853Z,98487.36
2017-11-19T11:01:41.383Z,98485.30
2017-11-19T11:04:08.960Z,98488.62
2017-11-19T11:06:36.525Z,98482.16
2017-11-19T11:09:04.061Z,98487.49
2017-11-19T11:11:31.561Z,98485.91
2017-11-19T11:13:59.122Z,98482.03
2017-11-19T11:16:26.618Z,98483.50
2017-11-19T11:18:54.189Z,98482.03
2017-11-19T11:21:22.637Z,98485.48
2017-11-19T11:23:50.194Z,98477.80
2017-11-19T11:26:20.197Z,98481.96
2017-11-19T11:28:47.762Z,98478.65
2017-11-19T11:31:16.593Z,98490.03
2017-11-19T11:33:44.507Z,98475.84
2017-11-19T11:36:13.526Z,98476.06
2017-11-19T11:38:42.182Z,98480.34
2017-11-19T11:41:09.684Z,98472.68
2017-11-19T11:43:38.153Z,98480.88
2017-11-19T11:46:08.635Z,98479.50
2017-11-19T11:48:38.576Z,98465.08
2017-11-19T11:51:07.981Z,98478.16
2017-11-19T11:53:39.808Z,98465.30
2017-11-19T11:56:07.956Z,98458.95
2017-11-19T11:58:35.541Z,98466.34
2017-11-19T12:01:03.082Z,98472.59
2017-11-19T12:03:30.581Z,98462.00
2017-11-19T12:05:58.125Z,98463.83
2017-11-19T12:08:25.633Z,98474.33
2017-11-19T12:10:53.171Z,98469.83
2017-11-19T12:13:20.662Z,98466.92
2017-11-19T12:15:49.157Z,98476.72
2017-11-19T12:18:16.666Z,98472.70
2017-11-19T12:20:44.833Z,98482.41
2017-11-19T12:23:12.505Z,98468.97
2017-11-19T12:25:40.046Z,98473.66
2017-11-19T12:28:07.550Z,98466.23
2017-11-19T12:30:38.804Z,98474.84
2017-11-19T12:33:06.364Z,98483.31
2017-11-19T12:35:33.938Z,98481.43
2017-11-19T12:52:13.135Z,98492.65
2017-11-19T12:54:46.242Z,98484.52
2017-11-19T12:57:21.329Z,98496.23
2017-11-19T12:59:54.467Z,98487.36
2017-11-19T13:02:26.215Z,98493.28
2017-11-19T13:05:14.579Z,98487.80
2017-11-19T13:07:48.238Z,98486.56
2017-11-19T13:10:18.289Z,98484.30
2017-11-19T13:12:49.494Z,98488.28
2017-11-19T13:15:22.418Z,98492.64
2017-11-19T13:17:53.025Z,98496.92
2017-11-19T13:20:24.487Z,98504.26
2017-11-19T13:34:39.518Z,98512.73
2017-11-19T13:37:08.950Z,98503.21
2017-11-19T13:39:39.639Z,98506.75
2017-11-19T13:42:10.996Z,98503.34
2017-11-19T13:47:08.231Z,98520.25
2017-11-19T13:49:39.832Z,98509.95
2017-11-19T13:52:09.390Z,98519.70
2017-11-19T14:02:58.314Z,98502.99
2017-11-19T14:05:32.075Z,98507.08
2017-11-19T14:08:08.308Z,98503.64
2017-11-19T14:10:42.462Z,98505.44
2017-11-19T14:13:17.304Z,98498.85
2017-11-19T14:15:48.109Z,98505.77
2017-11-19T14:18:21.292Z,98506.70
2017-11-19T14:20:53.793Z,98493.81
2017-11-19T14:23:23.733Z,98491.52
2017-11-19T14:26:01.601Z,98495.55
2017-11-19T14:28:32.380Z,98503.78
2017-11-19T14:31:02.472Z,98504.86
2017-11-19T14:33:37.133Z,98502.81
2017-11-19T14:36:07.976Z,98506.58
2017-11-19T14:38:37.621Z,98500.78
2017-11-19T14:41:07.551Z,98511.33
2017-11-19T14:43:39.114Z,98507.38
2017-11-19T14:46:17.704Z,98512.34
2017-11-19T14:48:48.632Z,98517.66
2017-11-19T14:51:18.541Z,98519.16
2017-11-19T14:53:48.399Z,98525.70
2017-11-19T14:56:18.027Z,98530.75
2017-11-19T15:01:26.023Z,98543.12
2017-11-19T15:03:56.510Z,98553.77
2017-11-19T15:06:26.785Z,98548.67
2017-11-19T15:08:57.984Z,98548.03
2017-11-19T15:11:30.809Z,98541.25
2017-11-19T15:14:02.926Z,98536.50
2017-11-19T15:16:37.588Z,98547.51
2017-11-19T15:19:11.263Z,98539.86
2017-11-19T15:21:45.905Z,98547.72
2017-11-19T15:24:16.665Z,98548.53
2017-11-19T15:26:46.587Z,98555.43
2017-11-19T15:29:34.979Z,98548.13
2017-11-19T15:32:13.281Z,98543.33
2017-11-19T15:36:32.363Z,98541.58
2017-11-19T15:39:02.510Z,98544.61
2017-11-19T15:41:32.691Z,98538.36
2017-11-19T15:44:07.302Z,98544.61
2017-11-19T15:46:40.153Z,98541.48
2017-11-19T15:49:10.201Z,98556.66
2017-11-19T15:51:40.034Z,98550.06
2017-11-19T15:54:10.842Z,98551.91
2017-11-19T15:56:41.307Z,98542.69
2017-11-19T15:59:11.225Z,98544.67
2017-11-19T16:01:53.056Z,98545.75
2017-11-19T16:04:22.861Z,98561.95
2017-11-19T16:06:55.749Z,98555.78
2017-11-19T16:09:25.906Z,98562.02
2017-11-19T16:11:57.915Z,98558.72
2017-11-19T16:14:28.600Z,98559.23
2017-11-19T16:17:04.988Z,98568.70
2017-11-19T16:19:39.744Z,98575.63
2017-11-19T16:22:09.817Z,98581.63
2017-11-19T16:24:40.978Z,98581.38
2017-11-19T16:27:13.714Z,98563.94
2017-11-19T16:29:43.797Z,98572.88
2017-11-19T16:32:17.034Z,98574.01
2017-11-19T16:34:47.060Z,98574.55
2017-11-19T16:37:21.213Z,98558.23
2017-11-19T16:39:51.012Z,98571.97
2017-11-19T16:42:24.901Z,98577.16
2017-11-19T16:45:00.456Z,98568.37
2017-11-19T16:47:30.582Z,98575.37
2017-11-19T16:50:00.569Z,98566.27
2017-11-19T16:52:30.879Z,98567.77
2017-11-19T16:55:01.502Z,98575.84
2017-11-19T16:57:44.100Z,98566.80
2017-11-19T17:05:55.628Z,98576.20
2017-11-19T17:08:28.995Z,98576.80
2017-11-19T17:10:59.188Z,98578.11
2017-11-19T17:13:29.216Z,98573.31
2017-11-19T17:16:04.666Z,98572.78
2017-11-19T17:18:37.007Z,98577.64
2017-11-19T17:21:11.663Z,98569.30
2017-11-19T17:23:41.734Z,98579.02
2017-11-19T17:26:15.080Z,98580.89
2017-11-19T17:28:50.450Z,98576.37
2017-11-19T17:31:20.491Z,98589.55
2017-11-19T17:33:54.225Z,98598.30
2017-11-19T17:36:28.324Z,98603.69
2017-11-19T17:38:58.408Z,98606.06
2017-11-19T17:41:32.754Z,98600.88
2017-11-19T17:44:08.491Z,98595.45
2017-11-19T17:46:53.366Z,98603.66
2017-11-19T17:49:26.395Z,98607.70
2017-11-19T17:51:59.468Z,98610.28
2017-11-19T17:54:29.532Z,98611.31
2017-11-19T17:57:04.443Z,98603.38
2017-11-19T17:59:42.040Z,98605.48
2017-11-19T18:02:19.619Z,98604.63
2017-11-19T18:04:53.018Z,98599.63
2017-11-19T18:07:26.745Z,98608.28
2017-11-19T18:09:56.873Z,98607.07
2017-11-19T18:12:26.965Z,98609.66
2017-11-19T18:14:57.513Z,98607.32
2017-11-19T18:17:34.414Z,98620.16
2017-11-19T18:20:09.415Z,98608.48
2017-11-19T18:22:39.994Z,98614.29
2017-11-19T18:25:09.963Z,98609.38
2017-11-19T18:27:44.911Z,98619.67
2017-11-19T18:30:14.922Z,98613.44
2017-11-19T18:32:45.484Z,98621.88
2017-11-19T18:35:15.866Z,98617.56
2017-11-19T18:37:46.142Z,98629.49
2017-11-19T18:40:17.060Z,98623.72
2017-11-19T18:42:49.038Z,98631.11
2017-11-19T18:45:19.569Z,98630.75
2017-11-19T18:47:50.789Z,98642.92
2017-11-19T18:50:22.898Z,98646.14
2017-11-19T18:52:53.094Z,98643.27
2017-11-19T18:55:23.158Z,98648.19
2017-11-19T18:57:53.401Z,98647.58
2017-11-19T19:00:26.166Z,98645.55
2017-11-19T19:02:56.618Z,98653.48
2017-11-19T19:05:28.017Z,98665.88
2017-11-19T19:07:58.845Z,98652.44
2017-11-19T19:10:39.129Z,98644.95
2017-11-19T19:13:13.282Z,98647.61
2017-11-19T19:15:44.927Z,98653.42
2017-11-19T19:18:19.205Z,98650.08
2017-11-19T19:20:51.696Z,98656.11
2017-11-19T19:23:26.221Z,98660.72
2017-11-19T19:26:08.464Z,98668.00
2017-11-19T19:28:44.746Z,98666.56
2017-11-19T19:31:22.848Z,98670.08
2017-11-19T19:34:14.063Z,98675.80
2017-11-19T19:36:48.404Z,98686.45
2017-11-19T19:39:29.149Z,98687.02
2017-11-19T19:42:05.769Z,98689.25
2017-11-19T19:44:36.905Z,98681.64
2017-11-19T19:47:19.255Z,98683.59
2017-11-19T19:49:49.495Z,98693.57
2017-11-19T19:52:20.297Z,98699.38
2017-11-19T19:54:51.066Z,98691.55
2017-11-19T19:57:21.060Z,98702.16
2017-11-19T19:59:52.947Z,98703.42
2017-11-19T20:02:22.876Z,98703.66
2017-11-19T20:04:56.392Z,98708.45
2017-11-19T20:07:32.769Z,98700.44
2017-11-19T20:10:32.951Z,98713.19
2017-11-19T20:15:52.685Z,98718.84
2017-11-19T20:18:23.981Z,98729.38
2017-11-19T20:21:07.080Z,98733.34
2017-11-19T20:23:37.319Z,98727.86
2017-11-19T20:26:36.594Z,98731.12
2017-11-19T20:29:17.221Z,98743.73
2017-11-19T20:31:51.812Z,98744.70
2017-11-19T20:34:44.173Z,98738.06
2017-11-19T20:37:17.586Z,98731.34
2017-11-19T20:39:55.014Z,98740.52
2017-11-19T20:42:26.095Z,98741.28
2017-11-19T20:44:56.736Z,98738.53
2017-11-19T20:47:34.955Z,98745.73
2017-11-19T20:50:09.110Z,98748.00
2017-11-19T20:52:39.804Z,98755.31
2017-11-19T20:55:12.911Z,98764.34
2017-11-19T20:57:45.607Z,98761.56
2017-11-19T21:00:22.836Z,98773.50
2017-11-19T21:02:58.886Z,98777.99
2017-11-19T21:05:38.476Z,98772.47
2017-11-19T21:11:17.762Z,98788.28
2017-11-19T21:13:51.996Z,98785.92
2017-11-19T21:16:24.020Z,98794.84
2017-11-19T21:18:54.939Z,98794.30
2017-11-19T21:21:31.000Z,98791.01
2017-11-19T21:24:03.066Z,98795.97
2017-11-19T21:26:37.685Z,98794.47
2017-11-19T21:29:10.688Z,98797.42
2017-11-19T21:31:43.253Z,98801.28
2017-11-19T21:34:17.857Z,98807.31
2017-11-19T21:36:50.064Z,98810.66
2017-11-19T21:39:20.236Z,98809.45
2017-11-19T21:41:50.145Z,98817.23
2017-11-19T21:44:20.061Z,98830.88
2017-11-19T21:46:50.064Z,98830.19
2017-11-19T21:49:20.535Z,98828.80
2017-11-19T21:51:50.412Z,98830.08
2017-11-19T21:54:20.378Z,98835.81
2017-11-19T21:56:54.269Z,98840.21
2017-11-19T21:59:23.935Z,98846.89
2017-11-19T22:01:53.592Z,98844.83
2017-11-19T22:04:39.382Z,98840.09
2017-11-19T22:07:09.797Z,98848.16
2017-11-19T22:09:43.043Z,98853.95
2017-11-19T22:12:15.570Z,98851.75
2017-11-19T22:14:45.835Z,98847.28
2017-11-19T22:17:16.765Z,98831.83
2017-11-19T22:19:46.649Z,98833.30
2017-11-19T22:22:16.882Z,98830.75
2017-11-19T22:24:47.527Z,98833.02
2017-11-19T22:27:17.491Z,98836.28
2017-11-19T22:29:47.400Z,98835.07
2017-11-19T22:32:19.150Z,98844.49
2017-11-19T22:34:49.363Z,98845.28
2017-11-19T22:37:19.308Z,98848.13
2017-11-19T22:39:49.185Z,98847.50
2017-11-19T22:42:18.845Z,98851.35
2017-11-19T22:44:48.762Z,98849.45
2017-11-19T22:47:18.445Z,98856.13
2017-11-19T22:49:48.319Z,98868.45
2017-11-19T22:52:18.825Z,98865.88
2017-11-19T22:54:50.405Z,98863.88
2017-11-19T22:57:21.118Z,98869.89
2017-11-19T22:59:51.501Z,98860.66
2017-11-19T23:02:21.374Z,98864.75
2017-11-19T23:05:00.140Z,98861.84
2017-11-19T23:07:38.991Z,98863.93
2017-11-19T23:10:15.346Z,98865.56
2017-11-19T23:12:47.636Z,98868.28
2017-11-19T23:15:34.206Z,98870.42
2017-11-19T23:18:04.642Z,98882.06
2017-11-19T23:20:34.560Z,98877.16
2017-11-19T23:23:04.525Z,98884.36
2017-11-19T23:25:34.518Z,98889.06
2017-11-19T23:28:04.436Z,98889.71
2017-11-19T23:30:34.540Z,98883.66
2017-11-19T23:33:05.387Z,98880.87
2017-11-19T23:35:35.386Z,98881.93
2017-11-19T23:38:05.640Z,98901.05
2017-11-19T23:40:35.978Z,98883.06
2017-11-19T23:43:06.015Z,98890.45
2017-11-19T23:45:37.323Z,98891.26
2017-11-19T23:48:07.644Z,98900.39
2017-11-19T23:50:37.887Z,98904.77
2017-11-19T23:53:09.598Z,98904.36
2017-11-19T23:55:40.230Z,98899.06
2017-11-19T23:58:14.156Z,98900.55
